createdAt,value
2023-04-28T00:02:24.610Z,24.73
2023-04-28T00:04:53.066Z,23.42
2023-04-28T00:07:20.791Z,19.13
2023-04-28T00:09:49.041Z,20.63
2023-04-28T00:12:16.690Z,17.30
2023-04-28T00:14:44.731Z,16.42
2023-04-28T00:17:11.986Z,14.82
2023-04-28T00:19:39.546Z,23.30
2023-04-28T00:22:06.802Z,27.55
2023-04-28T00:24:36.327Z,23.55
2023-04-28T00:27:03.824Z,25.67
2023-04-28T00:29:31.355Z,30.98
2023-04-28T00:31:58.700Z,39.72
2023-04-28T00:34:26.632Z,37.50
2023-04-28T00:36:54.068Z,37.65
2023-04-28T00:39:23.216Z,46.75
2023-04-28T00:41:50.496Z,43.70
2023-04-28T00:44:18.293Z,45.85
2023-04-28T00:46:46.102Z,45.83
2023-04-28T00:49:15.445Z,32.95
2023-04-28T00:51:42.750Z,30.77
2023-04-28T00:54:14.841Z,32.00
2023-04-28T00:56:43.788Z,31.77
2023-04-28T00:59:11.319Z,26.92
2023-04-28T01:01:38.828Z,28.40
2023-04-28T01:04:06.637Z,33.42
2023-04-28T01:06:35.179Z,46.70
2023-04-28T01:09:02.704Z,58.67
2023-04-28T01:11:29.905Z,53.30
2023-04-28T01:13:59.509Z,57.42
2023-04-28T01:16:27.615Z,61.13
2023-04-28T01:18:55.493Z,57.50
2023-04-28T01:21:32.984Z,55.88
2023-04-28T01:24:06.384Z,58.33
2023-04-28T01:26:33.736Z,53.17
2023-04-28T01:29:01.723Z,62.80
2023-04-28T01:31:31.196Z,56.65
2023-04-28T01:33:59.475Z,48.70
2023-04-28T01:36:28.601Z,51.90
2023-04-28T01:38:56.451Z,64.03
2023-04-28T01:41:23.716Z,70.97
2023-04-28T01:43:51.318Z,66.50
2023-04-28T01:46:18.811Z,59.88
2023-04-28T01:48:46.614Z,61.28
2023-04-28T01:51:14.024Z,58.08
2023-04-28T01:53:41.528Z,48.40
2023-04-28T01:56:08.992Z,57.08
2023-04-28T01:58:36.526Z,54.25
2023-04-28T02:01:03.989Z,57.78
2023-04-28T02:03:31.754Z,66.03
2023-04-28T02:05:59.333Z,66.55
2023-04-28T02:08:27.030Z,77.95
2023-04-28T02:10:54.309Z,66.00
2023-04-28T02:13:21.817Z,55.58
2023-04-28T02:15:49.115Z,53.47
2023-04-28T02:18:16.724Z,57.28
2023-04-28T02:20:43.974Z,60.30
2023-04-28T02:23:11.461Z,49.78
2023-04-28T02:25:38.714Z,51.28
2023-04-28T02:28:06.254Z,45.40
2023-04-28T02:30:33.518Z,50.03
2023-04-28T02:33:01.234Z,53.92
2023-04-28T02:35:28.762Z,58.63
2023-04-28T02:37:56.440Z,50.90
2023-04-28T02:40:23.763Z,54.13
2023-04-28T02:42:51.352Z,60.60
2023-04-28T02:45:18.712Z,63.78
2023-04-28T02:47:46.398Z,62.70
2023-04-28T02:50:16.952Z,65.13
2023-04-28T02:52:44.914Z,62.40
2023-04-28T02:55:12.220Z,69.63
2023-04-28T02:57:39.763Z,69.18
2023-04-28T03:00:10.465Z,59.83
2023-04-28T03:02:38.159Z,62.63
2023-04-28T03:05:05.997Z,58.67
2023-04-28T03:07:33.547Z,59.80
2023-04-28T03:10:01.061Z,52.47
2023-04-28T03:12:28.664Z,49.50
2023-04-28T03:14:56.061Z,63.25
2023-04-28T03:17:23.734Z,55.47
2023-04-28T03:19:50.983Z,63.83
2023-04-28T03:22:18.705Z,62.72
2023-04-28T03:24:46.112Z,55.85
2023-04-28T03:27:13.669Z,56.30
2023-04-28T03:29:41.084Z,52.13
2023-04-28T03:32:09.159Z,51.08
2023-04-28T03:34:36.959Z,50.53
2023-04-28T03:37:04.835Z,56.33
2023-04-28T03:39:32.121Z,47.20
2023-04-28T03:41:59.908Z,46.85
2023-04-28T03:44:27.354Z,43.40
2023-04-28T03:46:54.911Z,48.97
2023-04-28T03:49:22.281Z,41.38
2023-04-28T03:51:51.463Z,41.40
2023-04-28T03:54:18.769Z,43.50
2023-04-28T03:56:46.577Z,39.13
2023-04-28T03:59:14.067Z,35.65
2023-04-28T04:01:41.521Z,34.10
2023-04-28T04:04:09.018Z,36.22
2023-04-28T04:06:36.768Z,50.70
2023-04-28T04:09:04.200Z,43.45
2023-04-28T04:11:31.765Z,35.85
2023-04-28T04:13:58.998Z,28.20
2023-04-28T04:16:27.009Z,33.40
2023-04-28T04:18:54.232Z,34.75
2023-04-28T04:21:22.060Z,36.38
2023-04-28T04:23:49.367Z,36.70
2023-04-28T04:26:16.956Z,32.60
2023-04-28T04:28:44.174Z,41.45
2023-04-28T04:31:12.601Z,33.85
2023-04-28T04:33:39.984Z,37.80
2023-04-28T04:36:07.937Z,34.15
2023-04-28T04:38:35.285Z,36.75
2023-04-28T04:41:02.782Z,40.40
2023-04-28T04:43:30.023Z,36.78
2023-04-28T04:45:57.581Z,42.08
2023-04-28T04:48:24.942Z,39.45
2023-04-28T04:50:52.427Z,47.50
2023-04-28T04:53:19.683Z,96.75
2023-04-28T04:55:47.317Z,42.47
2023-04-28T04:58:14.784Z,35.55
2023-04-28T05:00:42.310Z,31.55
2023-04-28T05:03:10.097Z,35.53
2023-04-28T05:05:37.919Z,34.17
2023-04-28T05:08:06.069Z,33.17
2023-04-28T05:10:34.004Z,34.97
2023-04-28T05:13:01.258Z,29.55
2023-04-28T05:15:29.502Z,30.35
2023-04-28T05:17:57.386Z,30.35
2023-04-28T05:20:24.968Z,25.95
2023-04-28T05:22:52.211Z,27.83
2023-04-28T05:25:19.753Z,28.60
2023-04-28T05:27:47.023Z,23.95
2023-04-28T05:30:15.902Z,27.80
2023-04-28T05:32:43.230Z,26.10
2023-04-28T05:35:10.812Z,34.17
2023-04-28T05:37:38.286Z,27.05
2023-04-28T05:40:09.178Z,24.35
2023-04-28T05:42:37.957Z,26.90
2023-04-28T05:45:09.934Z,28.98
2023-04-28T05:47:37.761Z,31.30
2023-04-28T05:50:07.958Z,23.73
2023-04-28T05:52:37.052Z,24.35
2023-04-28T05:55:05.353Z,26.15
2023-04-28T05:57:45.622Z,29.08
2023-04-28T06:00:20.147Z,32.13
2023-04-28T06:02:47.611Z,42.00
2023-04-28T06:05:15.625Z,31.58
2023-04-28T06:07:43.111Z,41.50
2023-04-28T06:10:11.567Z,31.60
2023-04-28T06:12:39.528Z,32.10
2023-04-28T06:15:07.644Z,26.27
2023-04-28T06:17:34.995Z,21.52
2023-04-28T06:20:02.598Z,24.63
2023-04-28T06:22:29.833Z,28.92
2023-04-28T06:24:57.422Z,25.35
2023-04-28T06:27:24.813Z,26.42
2023-04-28T06:29:52.351Z,26.88
2023-04-28T06:32:19.800Z,26.88
2023-04-28T06:34:47.406Z,27.92
2023-04-28T06:37:14.627Z,23.77
2023-04-28T06:39:42.167Z,24.40
2023-04-28T06:42:09.379Z,22.30
2023-04-28T06:44:36.934Z,19.75
2023-04-28T06:47:04.357Z,21.88
2023-04-28T06:49:32.026Z,22.80
2023-04-28T06:51:59.249Z,21.20
2023-04-28T06:54:26.870Z,20.02
2023-04-28T06:56:54.145Z,20.67
2023-04-28T06:59:21.947Z,20.75
2023-04-28T07:01:49.230Z,20.70
2023-04-28T07:04:17.180Z,19.70
2023-04-28T07:06:44.690Z,17.38
2023-04-28T07:09:12.466Z,15.95
2023-04-28T07:11:39.856Z,17.67
2023-04-28T07:14:08.472Z,17.92
2023-04-28T07:16:36.410Z,17.75
2023-04-28T07:19:04.086Z,26.02
2023-04-28T07:21:31.449Z,17.05
2023-04-28T07:23:59.015Z,14.73
2023-04-28T07:26:26.317Z,17.00
2023-04-28T07:28:53.917Z,14.45
2023-04-28T07:31:21.950Z,15.52
2023-04-28T07:33:49.478Z,13.18
2023-04-28T07:36:17.024Z,14.45
2023-04-28T07:38:44.819Z,12.98
2023-04-28T07:41:12.622Z,15.90
2023-04-28T07:43:41.290Z,13.75
2023-04-28T07:46:08.901Z,10.52
2023-04-28T07:48:36.646Z,14.02
2023-04-28T07:51:03.995Z,15.60
2023-04-28T07:53:31.586Z,11.45
2023-04-28T07:55:59.428Z,21.20
2023-04-28T07:58:27.072Z,8.85
2023-04-28T08:00:54.304Z,10.32
2023-04-28T08:03:22.239Z,12.55
2023-04-28T08:05:50.236Z,10.90
2023-04-28T08:08:18.434Z,9.63
2023-04-28T08:10:45.890Z,7.38
2023-04-28T08:13:13.579Z,8.15
2023-04-28T08:15:40.895Z,14.10
2023-04-28T08:18:08.930Z,17.00
2023-04-28T08:20:36.330Z,8.77
2023-04-28T08:23:04.118Z,6.85
2023-04-28T08:25:31.509Z,10.02
2023-04-28T08:27:59.227Z,7.65
2023-04-28T08:30:26.812Z,7.85
2023-04-28T08:32:54.500Z,6.10
2023-04-28T08:35:21.906Z,8.85
2023-04-28T08:37:49.762Z,7.75
2023-04-28T08:40:17.063Z,7.90
2023-04-28T08:42:46.370Z,9.50
2023-04-28T08:45:15.821Z,7.60
2023-04-28T08:47:47.899Z,7.30
2023-04-28T08:50:17.588Z,6.88
2023-04-28T08:52:46.260Z,6.85
2023-04-28T08:55:14.245Z,9.05
2023-04-28T08:57:51.523Z,9.80
2023-04-28T09:00:19.085Z,11.45
2023-04-28T09:02:46.826Z,10.45
2023-04-28T09:05:15.230Z,8.57
2023-04-28T09:07:47.096Z,12.57
2023-04-28T09:10:24.151Z,13.45
2023-04-28T09:12:54.706Z,13.43
2023-04-28T09:15:36.294Z,8.88
2023-04-28T09:18:08.869Z,12.80
2023-04-28T09:20:37.209Z,7.22
2023-04-28T09:23:17.685Z,8.68
2023-04-28T09:26:11.420Z,8.45
2023-04-28T09:28:39.014Z,8.07
2023-04-28T09:31:06.477Z,8.95
2023-04-28T09:34:05.965Z,7.82
2023-04-28T09:36:48.982Z,8.07
2023-04-28T09:39:33.439Z,7.45
2023-04-28T09:42:03.650Z,4.78
2023-04-28T09:44:31.209Z,4.78
2023-04-28T09:46:59.581Z,3.83
2023-04-28T09:49:27.155Z,5.82
2023-04-28T09:51:54.516Z,4.30
2023-04-28T09:54:24.275Z,3.97
2023-04-28T09:56:52.692Z,5.65
2023-04-28T09:59:20.356Z,4.20
2023-04-28T10:01:49.625Z,4.57
2023-04-28T10:04:17.796Z,5.63
2023-04-28T10:06:46.004Z,6.05
2023-04-28T10:09:14.218Z,2.63
2023-04-28T10:11:42.465Z,5.90
2023-04-28T10:14:11.440Z,4.22
2023-04-28T10:16:39.376Z,5.05
2023-04-28T10:19:09.241Z,6.22
2023-04-28T10:21:54.328Z,5.53
2023-04-28T10:24:33.211Z,4.28
2023-04-28T10:27:09.423Z,4.78
2023-04-28T10:29:37.699Z,4.35
2023-04-28T10:32:29.143Z,4.45
2023-04-28T10:35:23.613Z,4.22
2023-04-28T10:38:09.266Z,4.70
2023-04-28T10:40:42.611Z,4.65
2023-04-28T10:43:32.118Z,5.13
2023-04-28T10:46:06.525Z,5.38
2023-04-28T10:48:33.993Z,4.00
2023-04-28T10:51:07.531Z,3.33
2023-04-28T10:53:47.453Z,5.35
2023-04-28T10:56:22.738Z,4.85
2023-04-28T10:59:00.619Z,5.95
2023-04-28T11:01:34.649Z,5.03
2023-04-28T11:04:18.180Z,3.42
2023-04-28T11:06:47.997Z,4.38
2023-04-28T11:09:15.375Z,4.00
2023-04-28T11:12:06.877Z,4.28
2023-04-28T11:14:37.058Z,4.32
2023-04-28T11:17:09.497Z,5.40
2023-04-28T11:19:46.633Z,5.30
2023-04-28T11:22:18.582Z,3.92
2023-04-28T11:25:00.213Z,4.40
2023-04-28T11:27:31.446Z,4.93
2023-04-28T11:29:59.431Z,7.10
2023-04-28T11:32:33.506Z,10.98
2023-04-28T11:35:01.626Z,3.63
2023-04-28T11:37:29.194Z,6.32
2023-04-28T11:39:57.504Z,5.55
2023-04-28T11:42:27.230Z,4.78
2023-04-28T11:47:42.606Z,4.97
2023-04-28T11:50:10.094Z,5.03
2023-04-28T11:52:49.063Z,5.63
2023-04-28T11:55:18.088Z,3.75
2023-04-28T11:57:45.873Z,4.00
2023-04-28T11:59:21.436Z,4.88
2023-04-28T12:00:19.247Z,15.82
2023-04-28T12:02:47.194Z,11.13
2023-04-28T12:05:14.770Z,5.90
2023-04-28T12:07:44.426Z,5.10
2023-04-28T12:10:17.007Z,5.00
2023-04-28T12:12:52.004Z,3.92
2023-04-28T12:15:22.536Z,6.10
2023-04-28T12:17:51.619Z,6.35
2023-04-28T12:20:39.206Z,4.38
2023-04-28T12:23:07.929Z,5.43
2023-04-28T12:25:46.344Z,3.63
2023-04-28T12:28:14.142Z,2.47
2023-04-28T12:30:42.653Z,5.30
2023-04-28T12:33:29.086Z,5.53
2023-04-28T12:35:57.998Z,4.07
2023-04-28T12:38:26.443Z,3.38
2023-04-28T12:40:54.465Z,4.35
2023-04-28T12:43:25.819Z,3.72
2023-04-28T12:45:55.842Z,5.25
2023-04-28T12:48:27.396Z,5.47
2023-04-28T12:50:54.616Z,6.97
2023-04-28T12:53:22.188Z,9.82
2023-04-28T12:55:49.519Z,5.25
2023-04-28T12:58:18.046Z,3.58
2023-04-28T13:00:45.336Z,4.50
2023-04-28T13:03:13.031Z,4.90
2023-04-28T13:05:40.559Z,5.05
2023-04-28T13:08:08.319Z,9.85
2023-04-28T13:10:35.533Z,10.85
2023-04-28T13:13:03.219Z,5.97
2023-04-28T13:15:31.624Z,5.72
2023-04-28T13:17:59.965Z,4.68
2023-04-28T13:20:27.244Z,4.45
2023-04-28T13:22:54.773Z,5.45
2023-04-28T13:25:22.162Z,5.93
2023-04-28T13:27:50.036Z,6.63
2023-04-28T13:30:17.382Z,5.20
2023-04-28T13:32:44.981Z,4.72
2023-04-28T13:35:12.221Z,4.22
2023-04-28T13:37:45.679Z,3.60
2023-04-28T13:40:13.535Z,4.78
2023-04-28T13:42:41.148Z,11.38
2023-04-28T13:45:08.793Z,9.18
2023-04-28T13:47:36.400Z,11.40
2023-04-28T13:50:03.836Z,4.10
2023-04-28T13:52:31.620Z,5.18
2023-04-28T13:54:58.824Z,3.72
2023-04-28T13:57:27.092Z,3.25
2023-04-28T13:59:54.392Z,3.58
2023-04-28T14:02:22.114Z,4.22
2023-04-28T14:04:56.037Z,5.18
2023-04-28T14:07:23.665Z,3.85
2023-04-28T14:09:51.016Z,3.45
2023-04-28T14:12:18.508Z,4.88
2023-04-28T14:14:49.535Z,7.90
2023-04-28T14:17:18.586Z,5.70
2023-04-28T14:19:46.899Z,3.55
2023-04-28T14:22:14.431Z,3.67
2023-04-28T14:24:43.277Z,5.90
2023-04-28T14:27:11.259Z,7.65
2023-04-28T14:29:39.179Z,4.82
2023-04-28T14:32:06.708Z,6.55
2023-04-28T14:34:34.046Z,4.72
2023-04-28T14:37:01.721Z,4.20
2023-04-28T14:39:28.988Z,4.50
2023-04-28T14:41:56.682Z,4.95
2023-04-28T14:44:24.079Z,6.55
2023-04-28T14:46:51.962Z,4.90
2023-04-28T14:49:28.942Z,4.40
2023-04-28T14:51:57.029Z,5.22
2023-04-28T14:54:24.574Z,5.13
2023-04-28T14:56:52.103Z,5.47
2023-04-28T14:59:19.630Z,4.97
2023-04-28T15:01:47.226Z,4.90
2023-04-28T15:04:14.802Z,6.45
2023-04-28T15:06:42.481Z,5.72
2023-04-28T15:09:10.748Z,6.97
2023-04-28T15:11:38.299Z,5.63
2023-04-28T15:14:06.539Z,3.90
2023-04-28T15:16:34.184Z,13.93
2023-04-28T15:19:01.516Z,19.75
2023-04-28T15:21:29.901Z,6.35
2023-04-28T15:23:57.751Z,5.80
2023-04-28T15:26:29.725Z,4.20
2023-04-28T15:28:57.958Z,4.05
2023-04-28T15:31:25.975Z,3.97
2023-04-28T15:33:53.294Z,6.57
2023-04-28T15:36:21.413Z,3.30
2023-04-28T15:38:49.126Z,6.18
2023-04-28T15:41:16.638Z,8.13
2023-04-28T15:43:46.215Z,5.57
2023-04-28T15:46:17.224Z,4.97
2023-04-28T15:48:44.956Z,5.28
2023-04-28T15:51:12.519Z,5.15
2023-04-28T15:53:40.292Z,4.13
2023-04-28T15:56:08.817Z,5.65
2023-04-28T15:58:36.349Z,2.63
2023-04-28T16:01:05.296Z,3.42
2023-04-28T16:03:32.850Z,3.70
2023-04-28T16:06:01.226Z,3.75
2023-04-28T16:08:37.851Z,4.25
2023-04-28T16:11:05.582Z,6.60
2023-04-28T16:13:33.102Z,5.93
2023-04-28T16:16:00.663Z,2.63
2023-04-28T16:18:28.067Z,5.13
2023-04-28T16:20:55.648Z,5.15
2023-04-28T16:23:23.028Z,4.05
2023-04-28T16:25:51.055Z,5.13
2023-04-28T16:28:18.381Z,4.80
2023-04-28T16:30:47.168Z,4.15
2023-04-28T16:33:14.459Z,6.43
2023-04-28T16:35:42.132Z,5.35
2023-04-28T16:38:18.558Z,4.35
2023-04-28T16:40:46.152Z,4.53
2023-04-28T16:43:13.424Z,6.40
2023-04-28T16:45:41.620Z,8.38
2023-04-28T16:48:08.956Z,6.75
2023-04-28T16:50:38.237Z,5.55
2023-04-28T16:53:08.041Z,3.45
2023-04-28T16:55:36.759Z,3.65
2023-04-28T16:58:04.739Z,5.80
2023-04-28T17:00:32.650Z,4.90
2023-04-28T17:03:00.098Z,4.78
2023-04-28T17:05:27.969Z,3.22
2023-04-28T17:07:55.339Z,8.38
2023-04-28T17:10:23.028Z,6.70
2023-04-28T17:12:50.486Z,5.25
2023-04-28T17:15:18.614Z,4.43
2023-04-28T17:17:50.944Z,4.43
2023-04-28T17:20:20.352Z,7.55
2023-04-28T17:22:48.855Z,3.95
2023-04-28T17:25:17.170Z,5.60
2023-04-28T17:27:44.602Z,4.88
2023-04-28T17:30:13.543Z,6.55
2023-04-28T17:32:42.854Z,9.60
2023-04-28T17:35:10.605Z,8.75
2023-04-28T17:37:38.256Z,12.73
2023-04-28T17:40:06.483Z,12.27
2023-04-28T17:42:33.669Z,10.65
2023-04-28T17:45:01.354Z,9.35
2023-04-28T17:47:28.678Z,6.63
2023-04-28T17:49:56.834Z,7.78
2023-04-28T17:52:24.173Z,7.65
2023-04-28T17:54:52.226Z,10.32
2023-04-28T17:57:21.819Z,7.88
2023-04-28T17:59:51.025Z,8.18
2023-04-28T18:02:18.695Z,9.85
2023-04-28T18:04:46.979Z,8.02
2023-04-28T18:07:14.319Z,9.15
2023-04-28T18:09:41.999Z,9.93
2023-04-28T18:12:09.799Z,20.80
2023-04-28T18:14:37.401Z,18.00
2023-04-28T18:17:04.651Z,10.45
2023-04-28T18:19:32.421Z,9.30
2023-04-28T18:22:00.241Z,8.60
2023-04-28T18:24:27.804Z,11.43
2023-04-28T18:26:55.089Z,8.32
2023-04-28T18:29:22.638Z,9.40
2023-04-28T18:31:49.995Z,10.25
2023-04-28T18:34:18.063Z,8.88
2023-04-28T18:36:45.437Z,11.10
2023-04-28T18:39:13.135Z,8.00
2023-04-28T18:41:40.410Z,8.82
2023-04-28T18:44:07.926Z,9.95
2023-04-28T18:46:35.617Z,10.15
2023-04-28T18:49:03.709Z,9.98
2023-04-28T18:51:31.224Z,14.32
2023-04-28T18:53:59.172Z,11.10
2023-04-28T18:56:26.579Z,9.75
2023-04-28T18:58:54.068Z,10.55
2023-04-28T19:01:21.866Z,6.57
2023-04-28T19:03:49.545Z,6.22
2023-04-28T19:06:17.581Z,9.57
2023-04-28T19:08:45.226Z,13.68
2023-04-28T19:11:12.489Z,15.05
2023-04-28T19:13:44.721Z,17.52
2023-04-28T19:16:12.201Z,20.30
2023-04-28T19:18:42.041Z,15.05
2023-04-28T19:21:12.249Z,18.52
2023-04-28T19:23:40.997Z,13.63
2023-04-28T19:26:09.666Z,10.88
2023-04-28T19:28:37.327Z,13.35
2023-04-28T19:31:04.651Z,13.60
2023-04-28T19:33:32.822Z,14.60
2023-04-28T19:36:00.344Z,11.38
2023-04-28T19:38:28.656Z,10.88
2023-04-28T19:41:03.651Z,9.77
2023-04-28T19:43:31.661Z,9.70
2023-04-28T19:45:58.974Z,10.68
2023-04-28T19:48:26.750Z,8.88
2023-04-28T19:50:54.447Z,9.85
2023-04-28T19:53:22.134Z,9.32
2023-04-28T19:55:49.444Z,9.70
2023-04-28T19:58:17.434Z,9.95
2023-04-28T20:00:45.477Z,10.07
2023-04-28T20:03:14.980Z,11.63
2023-04-28T20:05:42.370Z,7.80
2023-04-28T20:08:09.918Z,7.45
2023-04-28T20:10:37.254Z,8.38
2023-04-28T20:13:07.060Z,9.07
2023-04-28T20:15:34.732Z,7.35
2023-04-28T20:18:02.326Z,9.95
2023-04-28T20:20:30.118Z,9.50
2023-04-28T20:22:57.651Z,7.78
2023-04-28T20:25:25.089Z,8.65
2023-04-28T20:27:52.594Z,9.50
2023-04-28T20:30:20.178Z,25.88
2023-04-28T20:32:48.834Z,14.07
2023-04-28T20:35:17.610Z,9.23
2023-04-28T20:37:45.229Z,7.88
2023-04-28T20:40:12.887Z,10.00
2023-04-28T20:42:40.753Z,8.70
2023-04-28T20:45:08.402Z,9.88
2023-04-28T20:47:36.702Z,9.32
2023-04-28T20:50:04.945Z,6.85
2023-04-28T20:52:32.609Z,8.05
2023-04-28T20:55:00.461Z,7.53
2023-04-28T20:57:28.070Z,7.95
2023-04-28T20:59:55.439Z,6.80
2023-04-28T21:02:23.342Z,12.82
2023-04-28T21:04:51.027Z,6.47
2023-04-28T21:07:18.841Z,8.60
2023-04-28T21:09:46.074Z,7.97
2023-04-28T21:12:13.713Z,8.45
2023-04-28T21:14:41.044Z,8.63
2023-04-28T21:17:09.068Z,8.38
2023-04-28T21:19:36.974Z,11.25
2023-04-28T21:22:04.560Z,13.15
2023-04-28T21:24:31.819Z,12.40
2023-04-28T21:27:04.369Z,11.45
2023-04-28T21:29:32.101Z,10.52
2023-04-28T21:31:59.650Z,9.25
2023-04-28T21:34:27.727Z,8.57
2023-04-28T21:36:55.373Z,9.30
2023-04-28T21:39:22.628Z,9.50
2023-04-28T21:41:50.313Z,10.85
2023-04-28T21:44:17.640Z,9.70
2023-04-28T21:46:45.253Z,11.63
2023-04-28T21:49:13.814Z,9.82
2023-04-28T21:51:45.968Z,9.30
2023-04-28T21:54:14.469Z,11.10
2023-04-28T21:56:42.123Z,9.57
2023-04-28T21:59:09.564Z,11.13
2023-04-28T22:01:38.480Z,9.32
2023-04-28T22:04:08.792Z,11.93
2023-04-28T22:06:36.792Z,10.80
2023-04-28T22:09:05.248Z,11.23
2023-04-28T22:11:33.352Z,9.68
2023-04-28T22:14:00.999Z,12.90
2023-04-28T22:16:28.860Z,10.65
2023-04-28T22:18:56.187Z,9.77
2023-04-28T22:21:24.395Z,7.18
2023-04-28T22:23:51.732Z,7.25
2023-04-28T22:26:20.296Z,6.50
2023-04-28T22:28:48.748Z,9.60
2023-04-28T22:31:16.595Z,10.57
2023-04-28T22:33:44.422Z,9.63
2023-04-28T22:36:12.152Z,8.23
2023-04-28T22:38:46.150Z,9.13
2023-04-28T22:41:13.768Z,8.32
2023-04-28T22:43:40.999Z,9.07
2023-04-28T22:46:08.937Z,9.15
2023-04-28T22:48:36.163Z,9.70
2023-04-28T22:51:03.815Z,9.68
2023-04-28T22:53:31.034Z,9.10
2023-04-28T22:56:00.552Z,7.90
2023-04-28T22:58:27.746Z,9.70
2023-04-28T23:00:59.860Z,9.57
2023-04-28T23:03:27.465Z,9.65
2023-04-28T23:05:55.196Z,7.82
2023-04-28T23:08:25.248Z,10.10
2023-04-28T23:10:57.200Z,10.88
2023-04-28T23:13:25.310Z,10.38
2023-04-28T23:15:53.218Z,10.63
2023-04-28T23:18:20.882Z,11.38
2023-04-28T23:20:49.124Z,13.65
2023-04-28T23:23:16.649Z,10.43
2023-04-28T23:25:44.286Z,14.38
2023-04-28T23:28:11.602Z,10.60
2023-04-28T23:30:39.158Z,11.85
2023-04-28T23:33:06.469Z,11.98
2023-04-28T23:35:34.026Z,13.32
2023-04-28T23:38:01.674Z,15.13
2023-04-28T23:40:29.336Z,15.13
2023-04-28T23:42:56.806Z,13.02
2023-04-28T23:45:24.454Z,12.75
2023-04-28T23:47:52.789Z,12.20
2023-04-28T23:50:20.320Z,12.23
2023-04-28T23:52:47.547Z,11.77
2023-04-28T23:55:15.394Z,14.55
2023-04-28T23:57:42.694Z,14.57
